Franklinton, NC

8:42 PM EDT on September 04, 2015 (GMT -0400)
Wilton | | Change Station
CLOSE
Current Station
Personal Weather Station
Location: Franklinton, NC
Elevation: 520 ft
Nearby Weather Stations

Elev 520 ft 36.12 °N, 78.54 °W | Updated 5 seconds ago

Clear
Clear
73.2 °F
Feels Like 70 °F
N
0.0
Wind Variable Wind from North
Gusts 0.0 mph

Today
High -- | Low -- °F
--% Chance of Precip.
Yesterday
High -- | Low -- °F
Precip. -- in
6:47 AM 7:37 PM
Waning Gibbous, 54% visible
Pressure 30.06 in
Visibility 10.0 miles
Clouds Clear
Heat Index 70 °F
Dew Point 71 °F
Humidity 92%
Rainfall 0.45 in
Snow Depth Not available.
UV 0 out of 12
Pollen 8.50 out of 12
Air Quality Not available.
Flu Activity Not available.
METAR KLHZ 050035Z AUTO 00000KT 10SM CLR 23/21 A3006 RMK AO2
Pressure 30.06 in
Visibility 10.0 miles
Clouds Clear
Heat Index 70 °F
Dew Point 71 °F
Humidity 92%
Rainfall 0.45 in
Snow Depth Not available.
UV 0 out of 12
Pollen 8.50 out of 12
Air Quality Not available.
Flu Activity Not available.
METAR KLHZ 050035Z AUTO 00000KT 10SM CLR 23/21 A3006 RMK AO2

10-Day Weather Forecast

×

Almanac

Astronomy

Sep. 04, 2015 Rise Set
Actual Time
Civil Twilight
Nautical Twilight
Astronomical Twilight
Moon
Length of Visible Light
Length of Day
Tomorrow will be .
, % of the Moon is Illuminated

Today's Extremes

State Highs State Lows

Community

WunderPhotos

Upload Photos

1,852,367 photos uploaded!

WunderBlogs® & News

Nearby

Air Quality

  Air Quality AQ Index Pollutant
Not available.

Snow Depth

Station Depth Elevation

Earthquake Activity

City Distance Mag. Time & Date
Minimum magnitude displayed is 2.5.

Coastal Water Temperatures

Place Temperature

Stations

Nearby Weather Stations

Station Location Temp. Windchill Dew Point Humidity Wind Precip. Elev Updated Type